Overview Statistics Trail Chart Weather Telemetry Raw packets
 

This is the latest recevied weather packets stored in our database for station/object WI5KEY. If no packets are shown the sender has not sent any weather packets the latest 10 day(s).

<< 2 3 4 5 6 7 8 >>
Time Temp. Humidity Pressure Rain* Wind** Luminosity Snow
1788490819 29.44° C 71% 1011.5 hPa 0 mm - - -
1788489919 30° C 69% 1011.2 hPa 0 mm - - -
1788489018 30.56° C 66% 1011.1 hPa 0 mm - - -
1788488117 30.56° C 64% 1010.8 hPa 0 mm - - -
1788487217 30.56° C 64% 1010.5 hPa 0 mm - - -
1788486316 30.56° C 64% 1010.4 hPa 0 mm - - -
1788485414 31.11° C 63% 1010.3 hPa 0 mm - - -
1788484515 31.11° C 62% 1010.1 hPa 0 mm - - -
1788483613 31.11° C 61% 1009.9 hPa 0 mm - - -
1788482712 31.11° C 60% 1009.8 hPa 0 mm - - -
1788481812 31.67° C 59% 1009.8 hPa 0 mm - - -
1788480911 32.22° C 59% 1009.9 hPa 0 mm - - -
1788480010 32.78° C 59% 1009.7 hPa 0 mm - - -
1788479169 34.44° C 52% 1009.3 hPa 0 mm - - -
1788478209 35° C 50% 1008.8 hPa 0 mm - - -
1788477308 35.56° C 49% 1008.8 hPa 0 mm - - -
1788476407 36.67° C 46% 1008.6 hPa 0 mm - - -
1788475505 37.78° C 42% 1008.4 hPa 0 mm - - -
1788474604 38.33° C 39% 1008.4 hPa 0 mm - - -
1788473704 38.33° C 40% 1008.5 hPa 0 mm - - -
1788472803 37.78° C 41% 1008.5 hPa 0 mm - - -
1788471901 37.78° C 40% 1008.6 hPa 0 mm - - -
1788471001 38.89° C 39% 1008.7 hPa 0 mm - - -
1788470175 38.89° C 40% 1008.8 hPa 0 mm - - -
1788469258 38.89° C 39% 1009.1 hPa 0 mm - - -

* Rain latest hour (hover to see other rain measurements)
** Current wind speed in m/s (hover to see current wind gust speed)